createdAt,value
2023-03-15T00:00:11.795Z,3.18
2023-03-15T00:10:40.945Z,3.00
2023-03-15T00:20:49.134Z,2.82
2023-03-15T00:31:04.836Z,2.67
2023-03-15T00:41:14.031Z,2.68
2023-03-15T00:51:24.166Z,2.73
2023-03-15T01:01:32.617Z,2.65
2023-03-15T01:11:39.805Z,2.57
2023-03-15T01:21:46.232Z,2.54
2023-03-15T01:31:53.416Z,2.54
2023-03-15T01:42:00.545Z,2.58
2023-03-15T01:52:13.134Z,2.62
2023-03-15T02:02:22.978Z,2.68
2023-03-15T02:12:32.965Z,2.70
2023-03-15T02:22:45.795Z,2.63
2023-03-15T02:32:53.325Z,2.59
2023-03-15T02:43:04.699Z,2.61
2023-03-15T02:53:12.514Z,2.62
2023-03-15T03:03:19.659Z,2.56
2023-03-15T03:13:26.699Z,2.42
2023-03-15T03:23:35.109Z,2.38
2023-03-15T03:33:42.469Z,2.40
2023-03-15T03:43:49.660Z,2.34
2023-03-15T03:53:56.612Z,2.19
2023-03-15T04:04:03.625Z,2.08
2023-03-15T04:14:09.467Z,2.09
2023-03-15T04:24:17.166Z,2.09
2023-03-15T04:34:28.528Z,1.97
2023-03-15T04:44:35.531Z,1.96
2023-03-15T04:54:42.582Z,1.97
2023-03-15T05:04:49.771Z,1.96
2023-03-15T05:14:56.861Z,1.90
2023-03-15T05:25:04.017Z,1.86
2023-03-15T05:35:10.619Z,1.90
2023-03-15T05:45:17.815Z,1.91
2023-03-15T05:55:25.308Z,1.90
2023-03-15T06:05:32.528Z,2.00
2023-03-15T06:15:39.793Z,2.12
2023-03-15T06:25:47.094Z,2.25
2023-03-15T06:35:54.522Z,2.20
2023-03-15T06:46:01.787Z,2.35
2023-03-15T06:56:10.069Z,2.42
2023-03-15T07:06:17.320Z,2.49
2023-03-15T07:16:24.059Z,2.76
2023-03-15T07:26:31.306Z,2.92
2023-03-15T07:36:38.842Z,2.91
2023-03-15T07:46:47.365Z,2.86
2023-03-15T07:56:54.504Z,3.13
2023-03-15T08:07:01.840Z,3.43
2023-03-15T08:18:01.838Z,3.84
2023-03-15T08:28:08.164Z,4.10
2023-03-15T08:38:15.630Z,4.16
2023-03-15T08:48:22.866Z,4.39
2023-03-15T08:58:30.372Z,4.74
2023-03-15T09:08:37.904Z,5.15
2023-03-15T09:18:44.514Z,5.49
2023-03-15T09:38:57.506Z,5.97
2023-03-15T09:49:03.319Z,6.00
2023-03-15T09:59:13.751Z,6.34
2023-03-15T10:09:25.001Z,6.15
2023-03-15T10:19:31.195Z,6.01
2023-03-15T10:29:40.062Z,6.07
2023-03-15T10:39:47.967Z,6.10
2023-03-15T10:50:00.121Z,5.97
2023-03-15T11:00:05.825Z,5.71
2023-03-15T11:10:12.763Z,5.52
2023-03-15T11:20:22.131Z,5.43
2023-03-15T11:30:31.738Z,5.31
2023-03-15T11:40:40.303Z,5.35
2023-03-15T11:50:47.861Z,5.37
2023-03-15T12:00:55.147Z,5.26
2023-03-15T12:11:02.818Z,5.35
2023-03-15T12:21:15.685Z,5.38
2023-03-15T12:41:39.566Z,5.51
2023-03-15T12:51:58.180Z,5.47
2023-03-15T13:02:18.334Z,5.37
2023-03-15T13:12:24.287Z,5.37
2023-03-15T13:22:33.924Z,5.47
2023-03-15T13:32:41.370Z,5.57
2023-03-15T13:42:48.466Z,5.49
2023-03-15T13:52:57.874Z,5.53
2023-03-15T14:03:07.360Z,5.37
2023-03-15T14:13:22.631Z,5.36
2023-03-15T14:23:31.637Z,5.37
2023-03-15T14:33:41.449Z,5.49
2023-03-15T14:43:47.714Z,5.54
2023-03-15T14:53:56.460Z,5.59
2023-03-15T15:04:05.239Z,5.74
2023-03-15T15:14:12.419Z,5.70
2023-03-15T15:24:23.336Z,5.49
2023-03-15T15:34:34.191Z,5.38
2023-03-15T15:44:41.359Z,5.25
2023-03-15T16:04:55.310Z,4.85
2023-03-15T16:15:03.868Z,4.63
2023-03-15T16:25:09.146Z,4.50
2023-03-15T16:35:16.841Z,4.34
2023-03-15T16:45:25.198Z,4.18
2023-03-15T16:55:29.878Z,3.98
2023-03-15T17:05:38.105Z,3.80
2023-03-15T17:15:45.418Z,3.69
2023-03-15T17:25:53.557Z,3.57
2023-03-15T17:36:01.738Z,3.32
2023-03-15T17:46:06.539Z,3.17
2023-03-15T17:56:13.817Z,3.02
2023-03-15T18:06:20.960Z,2.85
2023-03-15T18:16:28.456Z,2.73
2023-03-15T18:26:35.804Z,2.65
2023-03-15T18:36:41.177Z,2.65
2023-03-15T18:46:48.249Z,2.51
2023-03-15T18:56:55.504Z,2.33
2023-03-15T19:07:01.462Z,2.22
2023-03-15T19:17:07.797Z,2.05
2023-03-15T19:27:15.677Z,1.86
2023-03-15T19:37:23.068Z,1.69
2023-03-15T19:57:36.823Z,1.47
2023-03-15T20:07:45.324Z,1.45
2023-03-15T20:17:53.154Z,1.29
2023-03-15T20:28:00.316Z,1.08
2023-03-15T20:38:07.340Z,0.82
2023-03-15T20:48:14.031Z,0.55
2023-03-15T20:58:21.595Z,0.26
2023-03-15T21:08:27.989Z,0.04
2023-03-15T21:18:35.941Z,-0.02
2023-03-15T21:28:43.715Z,0.02
2023-03-15T21:38:49.934Z,-0.01
2023-03-15T21:48:57.160Z,-0.13
2023-03-15T21:59:04.957Z,-0.32
2023-03-15T22:09:11.385Z,-0.55
2023-03-15T22:19:17.992Z,-0.72
2023-03-15T22:29:25.150Z,-0.84
2023-03-15T22:39:32.399Z,-0.79
2023-03-15T22:49:38.256Z,-0.72
2023-03-15T22:59:44.045Z,-0.65
2023-03-15T23:09:51.691Z,-0.79
2023-03-15T23:19:58.921Z,-1.07
2023-03-15T23:30:05.984Z,-1.33
2023-03-15T23:40:15.764Z,-1.52
2023-03-15T23:50:24.280Z,-1.59
